sensor_id;sensor_type;location;lat;lon;timestamp;P1;durP1;ratioP1;P2;durP2;ratioP2
21392;SDS011;10857;52.228;21.026;2023-10-08T00:01:20;15.33;;;7.67;;
21392;SDS011;10857;52.228;21.026;2023-10-08T00:03:48;17.00;;;8.23;;
21392;SDS011;10857;52.228;21.026;2023-10-08T00:06:18;17.90;;;8.23;;
21392;SDS011;10857;52.228;21.026;2023-10-08T00:08:50;20.03;;;8.40;;
21392;SDS011;10857;52.228;21.026;2023-10-08T00:11:21;16.53;;;8.10;;
21392;SDS011;10857;52.228;21.026;2023-10-08T00:13:49;20.53;;;9.13;;
21392;SDS011;10857;52.228;21.026;2023-10-08T00:16:17;16.30;;;8.17;;
21392;SDS011;10857;52.228;21.026;2023-10-08T00:18:48;17.37;;;8.10;;
21392;SDS011;10857;52.228;21.026;2023-10-08T00:21:21;18.50;;;8.43;;
21392;SDS011;10857;52.228;21.026;2023-10-08T00:23:54;21.27;;;8.20;;
21392;SDS011;10857;52.228;21.026;2023-10-08T00:26:26;25.07;;;9.20;;
21392;SDS011;10857;52.228;21.026;2023-10-08T00:29:01;18.73;;;8.97;;
21392;SDS011;10857;52.228;21.026;2023-10-08T00:31:55;19.77;;;8.70;;
21392;SDS011;10857;52.228;21.026;2023-10-08T00:34:26;17.27;;;8.90;;
21392;SDS011;10857;52.228;21.026;2023-10-08T00:36:54;20.10;;;9.07;;
21392;SDS011;10857;52.228;21.026;2023-10-08T00:39:23;17.57;;;8.90;;
21392;SDS011;10857;52.228;21.026;2023-10-08T00:41:53;20.60;;;8.93;;
21392;SDS011;10857;52.228;21.026;2023-10-08T00:44:27;22.93;;;8.33;;
21392;SDS011;10857;52.228;21.026;2023-10-08T00:47:02;21.20;;;8.77;;
21392;SDS011;10857;52.228;21.026;2023-10-08T00:49:33;17.90;;;7.97;;
21392;SDS011;10857;52.228;21.026;2023-10-08T00:52:11;15.70;;;7.63;;
21392;SDS011;10857;52.228;21.026;2023-10-08T00:54:41;20.93;;;8.47;;
21392;SDS011;10857;52.228;21.026;2023-10-08T00:57:19;19.10;;;7.17;;
21392;SDS011;10857;52.228;21.026;2023-10-08T00:59:53;16.77;;;7.67;;
21392;SDS011;10857;52.228;21.026;2023-10-08T01:02:24;19.73;;;7.70;;
21392;SDS011;10857;52.228;21.026;2023-10-08T01:04:55;16.77;;;7.80;;
21392;SDS011;10857;52.228;21.026;2023-10-08T01:07:23;13.93;;;7.23;;
21392;SDS011;10857;52.228;21.026;2023-10-08T01:09:51;13.23;;;6.63;;
21392;SDS011;10857;52.228;21.026;2023-10-08T01:12:29;17.00;;;7.70;;
21392;SDS011;10857;52.228;21.026;2023-10-08T01:15:21;14.10;;;7.30;;
21392;SDS011;10857;52.228;21.026;2023-10-08T01:17:56;16.37;;;7.60;;
21392;SDS011;10857;52.228;21.026;2023-10-08T01:20:28;17.70;;;8.07;;
21392;SDS011;10857;52.228;21.026;2023-10-08T01:23:06;17.93;;;7.37;;
21392;SDS011;10857;52.228;21.026;2023-10-08T01:25:44;16.80;;;7.53;;
21392;SDS011;10857;52.228;21.026;2023-10-08T01:28:17;18.30;;;7.87;;
21392;SDS011;10857;52.228;21.026;2023-10-08T01:30:57;15.40;;;7.07;;
21392;SDS011;10857;52.228;21.026;2023-10-08T01:33:31;15.70;;;7.37;;
21392;SDS011;10857;52.228;21.026;2023-10-08T01:36:07;21.37;;;7.37;;
21392;SDS011;10857;52.228;21.026;2023-10-08T01:38:39;16.10;;;7.30;;
21392;SDS011;10857;52.228;21.026;2023-10-08T01:41:08;14.73;;;6.93;;
21392;SDS011;10857;52.228;21.026;2023-10-08T01:43:46;14.97;;;6.87;;
21392;SDS011;10857;52.228;21.026;2023-10-08T01:46:19;15.83;;;6.27;;
21392;SDS011;10857;52.228;21.026;2023-10-08T01:48:49;19.70;;;7.00;;
21392;SDS011;10857;52.228;21.026;2023-10-08T01:51:27;18.27;;;6.80;;
21392;SDS011;10857;52.228;21.026;2023-10-08T01:54:06;13.37;;;6.77;;
21392;SDS011;10857;52.228;21.026;2023-10-08T01:56:43;15.73;;;7.07;;
21392;SDS011;10857;52.228;21.026;2023-10-08T01:59:12;15.17;;;6.73;;
21392;SDS011;10857;52.228;21.026;2023-10-08T02:01:43;18.40;;;7.37;;
21392;SDS011;10857;52.228;21.026;2023-10-08T02:04:12;15.33;;;7.30;;
21392;SDS011;10857;52.228;21.026;2023-10-08T02:06:47;19.13;;;7.20;;
21392;SDS011;10857;52.228;21.026;2023-10-08T02:09:18;17.93;;;7.80;;
21392;SDS011;10857;52.228;21.026;2023-10-08T02:11:55;21.27;;;7.50;;
21392;SDS011;10857;52.228;21.026;2023-10-08T02:14:24;15.27;;;7.90;;
21392;SDS011;10857;52.228;21.026;2023-10-08T02:17:15;16.37;;;8.03;;
21392;SDS011;10857;52.228;21.026;2023-10-08T02:19:44;19.50;;;8.00;;
21392;SDS011;10857;52.228;21.026;2023-10-08T02:22:19;16.20;;;8.27;;
21392;SDS011;10857;52.228;21.026;2023-10-08T02:24:46;19.90;;;8.33;;
21392;SDS011;10857;52.228;21.026;2023-10-08T02:27:16;17.63;;;7.23;;
21392;SDS011;10857;52.228;21.026;2023-10-08T02:29:43;17.63;;;7.67;;
21392;SDS011;10857;52.228;21.026;2023-10-08T02:32:10;16.90;;;7.77;;
21392;SDS011;10857;52.228;21.026;2023-10-08T02:34:40;18.97;;;7.87;;
21392;SDS011;10857;52.228;21.026;2023-10-08T02:37:08;18.13;;;7.90;;
21392;SDS011;10857;52.228;21.026;2023-10-08T02:39:37;19.47;;;8.27;;
21392;SDS011;10857;52.228;21.026;2023-10-08T02:42:10;19.87;;;8.20;;
21392;SDS011;10857;52.228;21.026;2023-10-08T02:44:59;18.43;;;7.63;;
21392;SDS011;10857;52.228;21.026;2023-10-08T02:47:30;17.90;;;7.87;;
21392;SDS011;10857;52.228;21.026;2023-10-08T02:49:58;20.97;;;7.83;;
21392;SDS011;10857;52.228;21.026;2023-10-08T02:52:25;21.47;;;7.80;;
21392;SDS011;10857;52.228;21.026;2023-10-08T02:54:55;15.00;;;7.07;;
21392;SDS011;10857;52.228;21.026;2023-10-08T02:57:26;19.70;;;7.77;;
21392;SDS011;10857;52.228;21.026;2023-10-08T02:59:57;22.57;;;8.20;;
21392;SDS011;10857;52.228;21.026;2023-10-08T03:02:26;18.77;;;7.70;;
21392;SDS011;10857;52.228;21.026;2023-10-08T03:04:56;22.13;;;8.67;;
21392;SDS011;10857;52.228;21.026;2023-10-08T03:07:25;17.37;;;7.37;;
21392;SDS011;10857;52.228;21.026;2023-10-08T03:10:00;19.40;;;7.70;;
21392;SDS011;10857;52.228;21.026;2023-10-08T03:12:44;20.57;;;7.97;;
21392;SDS011;10857;52.228;21.026;2023-10-08T03:15:14;16.80;;;7.53;;
21392;SDS011;10857;52.228;21.026;2023-10-08T03:18:01;15.07;;;5.53;;
21392;SDS011;10857;52.228;21.026;2023-10-08T03:20:41;12.90;;;5.13;;
21392;SDS011;10857;52.228;21.026;2023-10-08T03:23:23;11.47;;;5.27;;
21392;SDS011;10857;52.228;21.026;2023-10-08T03:25:54;13.83;;;5.33;;
21392;SDS011;10857;52.228;21.026;2023-10-08T03:28:30;10.53;;;4.80;;
21392;SDS011;10857;52.228;21.026;2023-10-08T03:31:15;10.53;;;4.67;;
21392;SDS011;10857;52.228;21.026;2023-10-08T03:33:46;11.33;;;4.73;;
21392;SDS011;10857;52.228;21.026;2023-10-08T03:36:18;9.73;;;4.43;;
21392;SDS011;10857;52.228;21.026;2023-10-08T03:38:50;9.90;;;3.57;;
21392;SDS011;10857;52.228;21.026;2023-10-08T03:41:21;10.10;;;4.43;;
21392;SDS011;10857;52.228;21.026;2023-10-08T03:43:55;11.03;;;3.50;;
21392;SDS011;10857;52.228;21.026;2023-10-08T03:46:32;4.77;;;2.87;;
21392;SDS011;10857;52.228;21.026;2023-10-08T03:49:07;5.10;;;2.63;;
21392;SDS011;10857;52.228;21.026;2023-10-08T03:51:43;8.00;;;3.50;;
21392;SDS011;10857;52.228;21.026;2023-10-08T03:54:10;7.07;;;2.60;;
21392;SDS011;10857;52.228;21.026;2023-10-08T03:56:43;6.60;;;2.33;;
21392;SDS011;10857;52.228;21.026;2023-10-08T03:59:15;5.93;;;2.27;;
21392;SDS011;10857;52.228;21.026;2023-10-08T04:02:11;6.73;;;2.57;;
21392;SDS011;10857;52.228;21.026;2023-10-08T04:04:48;4.97;;;2.17;;
21392;SDS011;10857;52.228;21.026;2023-10-08T04:07:16;5.33;;;2.20;;
21392;SDS011;10857;52.228;21.026;2023-10-08T04:10:17;5.20;;;2.10;;
21392;SDS011;10857;52.228;21.026;2023-10-08T04:13:04;8.70;;;2.20;;
21392;SDS011;10857;52.228;21.026;2023-10-08T04:15:35;6.23;;;2.37;;
21392;SDS011;10857;52.228;21.026;2023-10-08T04:18:09;5.33;;;1.90;;
21392;SDS011;10857;52.228;21.026;2023-10-08T04:20:37;6.87;;;2.40;;
21392;SDS011;10857;52.228;21.026;2023-10-08T04:23:05;4.83;;;2.00;;
21392;SDS011;10857;52.228;21.026;2023-10-08T04:25:48;5.07;;;1.90;;
21392;SDS011;10857;52.228;21.026;2023-10-08T04:28:21;5.93;;;2.20;;
21392;SDS011;10857;52.228;21.026;2023-10-08T04:30:50;8.87;;;2.03;;
21392;SDS011;10857;52.228;21.026;2023-10-08T04:33:18;3.17;;;1.60;;
21392;SDS011;10857;52.228;21.026;2023-10-08T04:35:46;6.23;;;1.77;;
21392;SDS011;10857;52.228;21.026;2023-10-08T04:38:26;4.60;;;1.47;;
21392;SDS011;10857;52.228;21.026;2023-10-08T04:40:55;4.23;;;1.40;;
21392;SDS011;10857;52.228;21.026;2023-10-08T04:43:29;2.70;;;1.30;;
21392;SDS011;10857;52.228;21.026;2023-10-08T04:46:11;4.23;;;1.60;;
21392;SDS011;10857;52.228;21.026;2023-10-08T04:48:57;3.90;;;1.40;;
21392;SDS011;10857;52.228;21.026;2023-10-08T04:51:25;2.50;;;1.30;;
21392;SDS011;10857;52.228;21.026;2023-10-08T04:54:00;2.90;;;1.40;;
21392;SDS011;10857;52.228;21.026;2023-10-08T04:56:39;3.57;;;1.40;;
21392;SDS011;10857;52.228;21.026;2023-10-08T04:59:07;4.47;;;1.67;;
21392;SDS011;10857;52.228;21.026;2023-10-08T05:01:54;2.63;;;1.40;;
21392;SDS011;10857;52.228;21.026;2023-10-08T05:04:41;4.37;;;1.10;;
21392;SDS011;10857;52.228;21.026;2023-10-08T05:07:23;2.03;;;1.33;;
21392;SDS011;10857;52.228;21.026;2023-10-08T05:10:16;1.53;;;1.17;;
21392;SDS011;10857;52.228;21.026;2023-10-08T05:13:05;3.93;;;1.20;;
21392;SDS011;10857;52.228;21.026;2023-10-08T05:15:43;3.00;;;1.50;;
21392;SDS011;10857;52.228;21.026;2023-10-08T05:18:46;5.00;;;1.40;;
21392;SDS011;10857;52.228;21.026;2023-10-08T05:21:45;3.03;;;1.63;;
21392;SDS011;10857;52.228;21.026;2023-10-08T05:24:32;6.63;;;1.93;;
21392;SDS011;10857;52.228;21.026;2023-10-08T05:27:08;5.97;;;1.70;;
21392;SDS011;10857;52.228;21.026;2023-10-08T05:29:56;2.60;;;1.50;;
21392;SDS011;10857;52.228;21.026;2023-10-08T05:32:44;5.03;;;1.97;;
21392;SDS011;10857;52.228;21.026;2023-10-08T05:35:37;5.57;;;2.23;;
21392;SDS011;10857;52.228;21.026;2023-10-08T05:38:18;6.20;;;2.90;;
21392;SDS011;10857;52.228;21.026;2023-10-08T05:41:34;6.33;;;2.90;;
21392;SDS011;10857;52.228;21.026;2023-10-08T05:44:18;7.30;;;2.63;;
21392;SDS011;10857;52.228;21.026;2023-10-08T05:46:47;6.00;;;2.10;;
21392;SDS011;10857;52.228;21.026;2023-10-08T05:49:24;6.77;;;2.33;;
21392;SDS011;10857;52.228;21.026;2023-10-08T05:52:20;8.33;;;2.53;;
21392;SDS011;10857;52.228;21.026;2023-10-08T05:55:07;7.27;;;2.43;;
21392;SDS011;10857;52.228;21.026;2023-10-08T05:58:03;8.97;;;3.00;;
21392;SDS011;10857;52.228;21.026;2023-10-08T06:00:55;7.17;;;2.67;;
21392;SDS011;10857;52.228;21.026;2023-10-08T06:03:51;5.00;;;2.30;;
21392;SDS011;10857;52.228;21.026;2023-10-08T06:06:40;6.53;;;2.43;;
21392;SDS011;10857;52.228;21.026;2023-10-08T06:09:34;5.57;;;2.27;;
21392;SDS011;10857;52.228;21.026;2023-10-08T06:12:17;3.63;;;1.70;;
21392;SDS011;10857;52.228;21.026;2023-10-08T06:14:59;3.50;;;1.80;;
21392;SDS011;10857;52.228;21.026;2023-10-08T06:17:35;4.67;;;1.80;;
21392;SDS011;10857;52.228;21.026;2023-10-08T06:20:46;4.83;;;2.00;;
21392;SDS011;10857;52.228;21.026;2023-10-08T06:23:39;7.17;;;2.03;;
21392;SDS011;10857;52.228;21.026;2023-10-08T06:26:09;5.93;;;2.00;;
21392;SDS011;10857;52.228;21.026;2023-10-08T06:28:43;4.47;;;1.53;;
21392;SDS011;10857;52.228;21.026;2023-10-08T06:31:32;2.70;;;1.17;;
21392;SDS011;10857;52.228;21.026;2023-10-08T06:34:05;4.07;;;1.20;;
21392;SDS011;10857;52.228;21.026;2023-10-08T06:36:38;2.83;;;1.40;;
21392;SDS011;10857;52.228;21.026;2023-10-08T06:39:23;2.17;;;1.10;;
21392;SDS011;10857;52.228;21.026;2023-10-08T06:42:20;2.47;;;1.17;;
21392;SDS011;10857;52.228;21.026;2023-10-08T06:44:54;4.87;;;1.30;;
21392;SDS011;10857;52.228;21.026;2023-10-08T06:47:32;2.73;;;1.20;;
21392;SDS011;10857;52.228;21.026;2023-10-08T06:50:01;4.43;;;1.53;;
21392;SDS011;10857;52.228;21.026;2023-10-08T06:52:40;4.00;;;1.33;;
21392;SDS011;10857;52.228;21.026;2023-10-08T06:55:10;3.67;;;1.27;;
21392;SDS011;10857;52.228;21.026;2023-10-08T06:57:37;5.37;;;1.37;;
21392;SDS011;10857;52.228;21.026;2023-10-08T07:00:05;4.63;;;1.30;;
21392;SDS011;10857;52.228;21.026;2023-10-08T07:02:38;2.37;;;1.30;;
21392;SDS011;10857;52.228;21.026;2023-10-08T07:05:06;4.23;;;1.30;;
21392;SDS011;10857;52.228;21.026;2023-10-08T07:07:36;2.27;;;1.00;;
21392;SDS011;10857;52.228;21.026;2023-10-08T07:10:06;2.40;;;1.20;;
21392;SDS011;10857;52.228;21.026;2023-10-08T07:12:39;2.50;;;1.20;;
21392;SDS011;10857;52.228;21.026;2023-10-08T07:15:08;3.33;;;1.20;;
21392;SDS011;10857;52.228;21.026;2023-10-08T07:17:39;3.87;;;1.23;;
21392;SDS011;10857;52.228;21.026;2023-10-08T07:20:09;2.80;;;1.17;;
21392;SDS011;10857;52.228;21.026;2023-10-08T07:22:45;3.13;;;1.20;;
21392;SDS011;10857;52.228;21.026;2023-10-08T07:25:12;4.63;;;1.10;;
21392;SDS011;10857;52.228;21.026;2023-10-08T07:27:41;3.50;;;1.07;;
21392;SDS011;10857;52.228;21.026;2023-10-08T07:30:08;3.77;;;1.27;;
21392;SDS011;10857;52.228;21.026;2023-10-08T07:32:36;4.17;;;1.33;;
21392;SDS011;10857;52.228;21.026;2023-10-08T07:35:05;3.70;;;1.23;;
21392;SDS011;10857;52.228;21.026;2023-10-08T07:37:53;3.27;;;1.00;;
21392;SDS011;10857;52.228;21.026;2023-10-08T07:40:21;4.00;;;1.13;;
21392;SDS011;10857;52.228;21.026;2023-10-08T07:42:54;2.37;;;1.10;;
21392;SDS011;10857;52.228;21.026;2023-10-08T07:45:21;3.67;;;1.30;;
21392;SDS011;10857;52.228;21.026;2023-10-08T07:47:48;3.00;;;1.30;;
21392;SDS011;10857;52.228;21.026;2023-10-08T07:50:15;3.10;;;1.20;;
21392;SDS011;10857;52.228;21.026;2023-10-08T07:52:42;3.93;;;1.30;;
21392;SDS011;10857;52.228;21.026;2023-10-08T07:55:12;3.20;;;1.40;;
21392;SDS011;10857;52.228;21.026;2023-10-08T07:57:45;2.97;;;1.13;;
21392;SDS011;10857;52.228;21.026;2023-10-08T08:00:12;3.77;;;1.50;;
21392;SDS011;10857;52.228;21.026;2023-10-08T08:02:50;2.93;;;1.10;;
21392;SDS011;10857;52.228;21.026;2023-10-08T08:05:19;4.33;;;1.40;;
21392;SDS011;10857;52.228;21.026;2023-10-08T08:07:47;4.23;;;1.20;;
21392;SDS011;10857;52.228;21.026;2023-10-08T08:10:16;3.73;;;1.00;;
21392;SDS011;10857;52.228;21.026;2023-10-08T08:12:46;2.00;;;1.03;;
21392;SDS011;10857;52.228;21.026;2023-10-08T08:15:13;4.03;;;1.30;;
21392;SDS011;10857;52.228;21.026;2023-10-08T08:17:43;4.37;;;1.30;;
21392;SDS011;10857;52.228;21.026;2023-10-08T08:20:14;3.87;;;1.60;;
21392;SDS011;10857;52.228;21.026;2023-10-08T08:22:45;4.57;;;1.10;;
21392;SDS011;10857;52.228;21.026;2023-10-08T08:25:24;3.37;;;0.97;;
21392;SDS011;10857;52.228;21.026;2023-10-08T08:28:01;2.50;;;1.10;;
21392;SDS011;10857;52.228;21.026;2023-10-08T08:30:32;3.33;;;1.00;;
21392;SDS011;10857;52.228;21.026;2023-10-08T08:33:03;2.73;;;1.07;;
21392;SDS011;10857;52.228;21.026;2023-10-08T08:35:37;2.97;;;0.90;;
21392;SDS011;10857;52.228;21.026;2023-10-08T08:38:05;4.27;;;1.00;;
21392;SDS011;10857;52.228;21.026;2023-10-08T08:40:35;2.93;;;0.90;;
21392;SDS011;10857;52.228;21.026;2023-10-08T08:43:06;5.67;;;1.00;;
21392;SDS011;10857;52.228;21.026;2023-10-08T08:45:38;2.83;;;0.83;;
21392;SDS011;10857;52.228;21.026;2023-10-08T08:48:07;1.67;;;0.80;;
21392;SDS011;10857;52.228;21.026;2023-10-08T08:50:34;2.33;;;1.03;;
21392;SDS011;10857;52.228;21.026;2023-10-08T08:53:04;1.93;;;1.00;;
21392;SDS011;10857;52.228;21.026;2023-10-08T08:55:31;4.40;;;0.93;;
21392;SDS011;10857;52.228;21.026;2023-10-08T08:57:59;1.60;;;0.93;;
21392;SDS011;10857;52.228;21.026;2023-10-08T09:00:28;1.60;;;0.90;;
21392;SDS011;10857;52.228;21.026;2023-10-08T09:02:56;2.93;;;1.03;;
21392;SDS011;10857;52.228;21.026;2023-10-08T09:05:25;2.30;;;1.00;;
21392;SDS011;10857;52.228;21.026;2023-10-08T09:07:57;2.33;;;1.00;;
21392;SDS011;10857;52.228;21.026;2023-10-08T09:10:26;1.20;;;0.80;;
21392;SDS011;10857;52.228;21.026;2023-10-08T09:12:55;3.03;;;0.90;;
21392;SDS011;10857;52.228;21.026;2023-10-08T09:15:26;2.30;;;1.20;;
21392;SDS011;10857;52.228;21.026;2023-10-08T09:17:54;4.60;;;1.10;;
21392;SDS011;10857;52.228;21.026;2023-10-08T09:20:24;2.53;;;1.00;;
21392;SDS011;10857;52.228;21.026;2023-10-08T09:23:06;1.63;;;0.87;;
21392;SDS011;10857;52.228;21.026;2023-10-08T09:25:35;1.63;;;0.70;;
21392;SDS011;10857;52.228;21.026;2023-10-08T09:28:03;1.90;;;0.80;;
21392;SDS011;10857;52.228;21.026;2023-10-08T09:30:35;3.33;;;1.00;;
21392;SDS011;10857;52.228;21.026;2023-10-08T09:33:07;2.97;;;0.97;;
21392;SDS011;10857;52.228;21.026;2023-10-08T09:35:41;4.57;;;0.90;;
21392;SDS011;10857;52.228;21.026;2023-10-08T09:38:12;2.97;;;0.90;;
21392;SDS011;10857;52.228;21.026;2023-10-08T09:40:40;3.67;;;1.00;;
21392;SDS011;10857;52.228;21.026;2023-10-08T09:43:13;1.97;;;0.73;;
21392;SDS011;10857;52.228;21.026;2023-10-08T09:45:43;2.33;;;0.80;;
21392;SDS011;10857;52.228;21.026;2023-10-08T09:48:15;1.80;;;1.00;;
21392;SDS011;10857;52.228;21.026;2023-10-08T09:50:50;3.77;;;0.90;;
21392;SDS011;10857;52.228;21.026;2023-10-08T09:53:22;2.57;;;1.10;;
21392;SDS011;10857;52.228;21.026;2023-10-08T09:56:12;1.60;;;0.80;;
21392;SDS011;10857;52.228;21.026;2023-10-08T09:58:44;1.87;;;0.90;;
21392;SDS011;10857;52.228;21.026;2023-10-08T10:01:16;1.40;;;0.83;;
21392;SDS011;10857;52.228;21.026;2023-10-08T10:03:46;2.77;;;1.00;;
21392;SDS011;10857;52.228;21.026;2023-10-08T10:06:18;1.17;;;0.87;;
21392;SDS011;10857;52.228;21.026;2023-10-08T10:08:50;2.80;;;0.90;;
21392;SDS011;10857;52.228;21.026;2023-10-08T10:11:17;2.10;;;0.80;;
21392;SDS011;10857;52.228;21.026;2023-10-08T10:13:50;2.87;;;1.10;;
21392;SDS011;10857;52.228;21.026;2023-10-08T10:16:21;1.70;;;0.97;;
21392;SDS011;10857;52.228;21.026;2023-10-08T10:18:59;2.37;;;1.00;;
21392;SDS011;10857;52.228;21.026;2023-10-08T10:21:31;0.80;;;0.70;;
21392;SDS011;10857;52.228;21.026;2023-10-08T10:24:02;3.60;;;0.90;;
21392;SDS011;10857;52.228;21.026;2023-10-08T10:26:36;1.57;;;0.80;;
21392;SDS011;10857;52.228;21.026;2023-10-08T10:31:38;2.70;;;0.70;;
21392;SDS011;10857;52.228;21.026;2023-10-08T10:34:13;2.33;;;1.00;;
21392;SDS011;10857;52.228;21.026;2023-10-08T10:36:46;2.00;;;0.90;;
21392;SDS011;10857;52.228;21.026;2023-10-08T10:39:23;2.27;;;0.73;;
21392;SDS011;10857;52.228;21.026;2023-10-08T10:42:00;2.70;;;0.80;;
21392;SDS011;10857;52.228;21.026;2023-10-08T10:44:31;2.40;;;1.00;;
21392;SDS011;10857;52.228;21.026;2023-10-08T10:47:08;2.37;;;1.00;;
21392;SDS011;10857;52.228;21.026;2023-10-08T10:49:47;3.27;;;0.80;;
21392;SDS011;10857;52.228;21.026;2023-10-08T10:52:24;2.33;;;0.80;;
21392;SDS011;10857;52.228;21.026;2023-10-08T10:55:01;1.83;;;0.60;;
21392;SDS011;10857;52.228;21.026;2023-10-08T11:00:41;3.70;;;0.90;;
21392;SDS011;10857;52.228;21.026;2023-10-08T11:03:31;1.63;;;0.70;;
21392;SDS011;10857;52.228;21.026;2023-10-08T11:06:04;1.40;;;0.83;;
21392;SDS011;10857;52.228;21.026;2023-10-08T11:08:43;1.13;;;0.60;;
21392;SDS011;10857;52.228;21.026;2023-10-08T11:11:13;3.50;;;1.20;;
21392;SDS011;10857;52.228;21.026;2023-10-08T11:13:43;4.37;;;0.80;;
21392;SDS011;10857;52.228;21.026;2023-10-08T11:16:17;2.73;;;0.63;;
21392;SDS011;10857;52.228;21.026;2023-10-08T11:18:49;2.17;;;0.80;;
21392;SDS011;10857;52.228;21.026;2023-10-08T11:21:18;2.73;;;0.87;;
21392;SDS011;10857;52.228;21.026;2023-10-08T11:23:52;1.30;;;0.80;;
21392;SDS011;10857;52.228;21.026;2023-10-08T11:26:24;1.67;;;0.60;;
21392;SDS011;10857;52.228;21.026;2023-10-08T11:28:59;3.30;;;1.17;;
21392;SDS011;10857;52.228;21.026;2023-10-08T11:31:30;2.83;;;0.80;;
21392;SDS011;10857;52.228;21.026;2023-10-08T11:34:04;1.03;;;0.80;;
21392;SDS011;10857;52.228;21.026;2023-10-08T11:36:40;3.07;;;0.80;;
21392;SDS011;10857;52.228;21.026;2023-10-08T11:39:25;1.63;;;0.73;;
21392;SDS011;10857;52.228;21.026;2023-10-08T11:42:01;1.40;;;0.60;;
21392;SDS011;10857;52.228;21.026;2023-10-08T11:44:37;1.00;;;0.70;;
21392;SDS011;10857;52.228;21.026;2023-10-08T11:47:06;2.07;;;0.70;;
21392;SDS011;10857;52.228;21.026;2023-10-08T11:49:50;1.20;;;0.80;;
21392;SDS011;10857;52.228;21.026;2023-10-08T11:52:36;2.60;;;0.80;;
21392;SDS011;10857;52.228;21.026;2023-10-08T11:55:08;2.37;;;0.90;;
21392;SDS011;10857;52.228;21.026;2023-10-08T11:57:38;1.37;;;0.80;;
21392;SDS011;10857;52.228;21.026;2023-10-08T12:00:12;1.83;;;0.97;;
21392;SDS011;10857;52.228;21.026;2023-10-08T12:03:06;1.77;;;0.80;;
21392;SDS011;10857;52.228;21.026;2023-10-08T12:05:34;1.87;;;1.17;;
21392;SDS011;10857;52.228;21.026;2023-10-08T12:08:01;1.27;;;0.80;;
21392;SDS011;10857;52.228;21.026;2023-10-08T12:10:28;1.10;;;0.80;;
21392;SDS011;10857;52.228;21.026;2023-10-08T12:13:00;1.57;;;1.00;;
21392;SDS011;10857;52.228;21.026;2023-10-08T12:15:32;1.00;;;0.70;;
21392;SDS011;10857;52.228;21.026;2023-10-08T12:18:07;2.87;;;0.90;;
21392;SDS011;10857;52.228;21.026;2023-10-08T12:20:35;1.60;;;0.97;;
21392;SDS011;10857;52.228;21.026;2023-10-08T12:23:06;3.10;;;0.80;;
21392;SDS011;10857;52.228;21.026;2023-10-08T12:25:37;3.00;;;0.80;;
21392;SDS011;10857;52.228;21.026;2023-10-08T12:28:04;1.17;;;0.77;;
21392;SDS011;10857;52.228;21.026;2023-10-08T12:30:33;3.10;;;1.10;;
21392;SDS011;10857;52.228;21.026;2023-10-08T12:33:08;4.90;;;1.10;;
21392;SDS011;10857;52.228;21.026;2023-10-08T12:35:43;1.23;;;0.77;;
21392;SDS011;10857;52.228;21.026;2023-10-08T12:38:11;3.23;;;0.93;;
21392;SDS011;10857;52.228;21.026;2023-10-08T12:40:40;1.53;;;1.07;;
21392;SDS011;10857;52.228;21.026;2023-10-08T12:43:35;4.93;;;1.27;;
21392;SDS011;10857;52.228;21.026;2023-10-08T12:46:05;4.13;;;1.20;;
21392;SDS011;10857;52.228;21.026;2023-10-08T12:48:37;3.37;;;1.47;;
21392;SDS011;10857;52.228;21.026;2023-10-08T12:51:05;3.00;;;1.10;;
21392;SDS011;10857;52.228;21.026;2023-10-08T12:53:33;2.60;;;1.10;;
21392;SDS011;10857;52.228;21.026;2023-10-08T12:56:00;6.80;;;1.10;;
21392;SDS011;10857;52.228;21.026;2023-10-08T12:58:33;3.57;;;1.30;;
21392;SDS011;10857;52.228;21.026;2023-10-08T13:01:08;7.70;;;1.63;;
21392;SDS011;10857;52.228;21.026;2023-10-08T13:03:36;3.77;;;1.33;;
21392;SDS011;10857;52.228;21.026;2023-10-08T13:06:18;3.80;;;1.30;;
21392;SDS011;10857;52.228;21.026;2023-10-08T13:08:52;2.67;;;1.10;;
21392;SDS011;10857;52.228;21.026;2023-10-08T13:11:22;2.00;;;1.27;;
21392;SDS011;10857;52.228;21.026;2023-10-08T13:13:55;1.40;;;0.97;;
21392;SDS011;10857;52.228;21.026;2023-10-08T13:16:24;5.87;;;1.30;;
21392;SDS011;10857;52.228;21.026;2023-10-08T13:18:52;2.63;;;1.00;;
21392;SDS011;10857;52.228;21.026;2023-10-08T13:21:26;2.43;;;1.03;;
21392;SDS011;10857;52.228;21.026;2023-10-08T13:23:55;2.30;;;1.30;;
21392;SDS011;10857;52.228;21.026;2023-10-08T13:26:26;5.03;;;1.20;;
21392;SDS011;10857;52.228;21.026;2023-10-08T13:28:58;2.80;;;1.10;;
21392;SDS011;10857;52.228;21.026;2023-10-08T13:31:25;2.83;;;1.10;;
21392;SDS011;10857;52.228;21.026;2023-10-08T13:33:55;4.83;;;1.20;;
21392;SDS011;10857;52.228;21.026;2023-10-08T13:36:31;5.60;;;1.40;;
21392;SDS011;10857;52.228;21.026;2023-10-08T13:39:11;5.27;;;1.57;;
21392;SDS011;10857;52.228;21.026;2023-10-08T13:41:47;3.37;;;1.33;;
21392;SDS011;10857;52.228;21.026;2023-10-08T13:44:16;6.40;;;1.60;;
21392;SDS011;10857;52.228;21.026;2023-10-08T13:46:47;5.83;;;1.60;;
21392;SDS011;10857;52.228;21.026;2023-10-08T13:49:18;3.83;;;1.10;;
21392;SDS011;10857;52.228;21.026;2023-10-08T13:51:45;2.60;;;1.00;;
21392;SDS011;10857;52.228;21.026;2023-10-08T13:54:17;2.33;;;0.93;;
21392;SDS011;10857;52.228;21.026;2023-10-08T13:56:48;1.77;;;1.10;;
21392;SDS011;10857;52.228;21.026;2023-10-08T13:59:16;3.73;;;1.20;;
21392;SDS011;10857;52.228;21.026;2023-10-08T14:01:46;2.27;;;1.20;;
21392;SDS011;10857;52.228;21.026;2023-10-08T14:04:14;4.37;;;1.27;;
21392;SDS011;10857;52.228;21.026;2023-10-08T14:06:47;2.50;;;1.20;;
21392;SDS011;10857;52.228;21.026;2023-10-08T14:09:19;6.30;;;1.40;;
21392;SDS011;10857;52.228;21.026;2023-10-08T14:12:05;6.23;;;1.70;;
21392;SDS011;10857;52.228;21.026;2023-10-08T14:14:37;6.53;;;1.53;;
21392;SDS011;10857;52.228;21.026;2023-10-08T14:17:11;3.33;;;1.40;;
21392;SDS011;10857;52.228;21.026;2023-10-08T14:19:42;4.43;;;1.33;;
21392;SDS011;10857;52.228;21.026;2023-10-08T14:22:26;8.70;;;1.40;;
21392;SDS011;10857;52.228;21.026;2023-10-08T14:24:53;2.87;;;1.20;;
21392;SDS011;10857;52.228;21.026;2023-10-08T14:27:26;3.63;;;1.37;;
21392;SDS011;10857;52.228;21.026;2023-10-08T14:29:59;4.40;;;1.30;;
21392;SDS011;10857;52.228;21.026;2023-10-08T14:32:33;5.97;;;1.37;;
21392;SDS011;10857;52.228;21.026;2023-10-08T14:35:00;5.03;;;1.63;;
21392;SDS011;10857;52.228;21.026;2023-10-08T14:37:46;7.77;;;1.73;;
21392;SDS011;10857;52.228;21.026;2023-10-08T14:40:31;3.63;;;1.43;;
21392;SDS011;10857;52.228;21.026;2023-10-08T14:43:17;4.17;;;1.37;;
21392;SDS011;10857;52.228;21.026;2023-10-08T14:45:46;3.93;;;1.43;;
21392;SDS011;10857;52.228;21.026;2023-10-08T14:48:14;1.50;;;1.10;;
21392;SDS011;10857;52.228;21.026;2023-10-08T14:50:41;2.47;;;1.30;;
21392;SDS011;10857;52.228;21.026;2023-10-08T14:53:09;3.43;;;1.10;;
21392;SDS011;10857;52.228;21.026;2023-10-08T14:55:38;3.13;;;1.20;;
21392;SDS011;10857;52.228;21.026;2023-10-08T14:58:05;4.73;;;1.37;;
21392;SDS011;10857;52.228;21.026;2023-10-08T15:00:37;2.33;;;1.10;;
21392;SDS011;10857;52.228;21.026;2023-10-08T15:03:06;5.07;;;1.40;;
21392;SDS011;10857;52.228;21.026;2023-10-08T15:05:35;2.07;;;1.03;;
21392;SDS011;10857;52.228;21.026;2023-10-08T15:08:08;2.23;;;1.10;;
21392;SDS011;10857;52.228;21.026;2023-10-08T15:10:37;3.20;;;0.97;;
21392;SDS011;10857;52.228;21.026;2023-10-08T15:13:05;11.20;;;1.20;;
21392;SDS011;10857;52.228;21.026;2023-10-08T15:15:33;2.57;;;0.90;;
21392;SDS011;10857;52.228;21.026;2023-10-08T15:18:06;5.43;;;1.00;;